Centralia, Washington
Current Conditions -  °F | °C
As of 9:55 AM on Tuesday 21 Oct 2014 (Local Time) from KCLS Reporting Station
Broken Clouds Broken Clouds  
Wind Chill: 14°   Ceiling: 6500
Heat Index: 14°   Visibility: 10mi
Dew Point: 12°   Wind: 12mph
Humidity: 88%   Direction: 180°S
Pressure: 29.94"   Gusts: 17mph
Location:  46.73°N, 122.95°W
Report Text: KCLS 211655Z AUTO 18010G15KT 10SM FEW015 SCT043 BKN065 14/12 A2994 RMK AO2
Loading
Personal Weather Stations






























Interactive Weather Map
Tropical Storm Tracking
New forecast layout! Learn more

10-Day Weather Forecast

Advertisements
Track Severe Weather on mobile